sensor_id;sensor_type;location;lat;lon;timestamp;P1;durP1;ratioP1;P2;durP2;ratioP2
19221;SDS011;9745;50.828;4.378;2023-07-20T00:00:55;6.77;;;2.37;;
19221;SDS011;9745;50.828;4.378;2023-07-20T00:03:21;4.90;;;1.97;;
19221;SDS011;9745;50.828;4.378;2023-07-20T00:05:50;4.70;;;2.13;;
19221;SDS011;9745;50.828;4.378;2023-07-20T00:08:17;7.33;;;2.80;;
19221;SDS011;9745;50.828;4.378;2023-07-20T00:10:43;5.83;;;2.03;;
19221;SDS011;9745;50.828;4.378;2023-07-20T00:13:09;4.53;;;2.00;;
19221;SDS011;9745;50.828;4.378;2023-07-20T00:15:35;4.87;;;2.10;;
19221;SDS011;9745;50.828;4.378;2023-07-20T00:18:02;5.80;;;2.27;;
19221;SDS011;9745;50.828;4.378;2023-07-20T00:20:28;8.17;;;2.40;;
19221;SDS011;9745;50.828;4.378;2023-07-20T00:22:54;5.30;;;2.03;;
19221;SDS011;9745;50.828;4.378;2023-07-20T00:25:22;5.70;;;2.10;;
19221;SDS011;9745;50.828;4.378;2023-07-20T00:27:49;6.07;;;2.20;;
19221;SDS011;9745;50.828;4.378;2023-07-20T00:30:15;7.90;;;2.20;;
19221;SDS011;9745;50.828;4.378;2023-07-20T00:32:42;5.57;;;2.10;;
19221;SDS011;9745;50.828;4.378;2023-07-20T00:35:08;2.57;;;1.80;;
19221;SDS011;9745;50.828;4.378;2023-07-20T00:37:34;5.47;;;2.27;;
19221;SDS011;9745;50.828;4.378;2023-07-20T00:40:01;9.80;;;2.50;;
19221;SDS011;9745;50.828;4.378;2023-07-20T00:42:30;5.37;;;2.87;;
19221;SDS011;9745;50.828;4.378;2023-07-20T00:44:56;8.53;;;2.77;;
19221;SDS011;9745;50.828;4.378;2023-07-20T00:47:22;7.03;;;2.37;;
19221;SDS011;9745;50.828;4.378;2023-07-20T00:49:48;9.50;;;2.80;;
19221;SDS011;9745;50.828;4.378;2023-07-20T00:52:14;5.83;;;2.20;;
19221;SDS011;9745;50.828;4.378;2023-07-20T00:54:40;4.07;;;2.40;;
19221;SDS011;9745;50.828;4.378;2023-07-20T00:57:07;8.23;;;2.83;;
19221;SDS011;9745;50.828;4.378;2023-07-20T00:59:36;7.47;;;2.60;;
19221;SDS011;9745;50.828;4.378;2023-07-20T01:02:02;5.53;;;2.60;;
19221;SDS011;9745;50.828;4.378;2023-07-20T01:04:28;14.30;;;3.90;;
19221;SDS011;9745;50.828;4.378;2023-07-20T01:09:24;8.73;;;2.50;;
19221;SDS011;9745;50.828;4.378;2023-07-20T01:14:33;7.73;;;2.43;;
19221;SDS011;9745;50.828;4.378;2023-07-20T01:16:59;6.97;;;2.50;;
19221;SDS011;9745;50.828;4.378;2023-07-20T01:19:25;8.70;;;2.60;;
19221;SDS011;9745;50.828;4.378;2023-07-20T01:21:59;7.70;;;2.87;;
19221;SDS011;9745;50.828;4.378;2023-07-20T01:32:25;8.57;;;3.50;;
19221;SDS011;9745;50.828;4.378;2023-07-20T01:34:52;8.93;;;3.07;;
19221;SDS011;9745;50.828;4.378;2023-07-20T01:37:18;9.63;;;2.90;;
19221;SDS011;9745;50.828;4.378;2023-07-20T01:39:46;9.27;;;3.63;;
19221;SDS011;9745;50.828;4.378;2023-07-20T01:42:12;6.70;;;3.33;;
19221;SDS011;9745;50.828;4.378;2023-07-20T01:44:38;8.70;;;2.97;;
19221;SDS011;9745;50.828;4.378;2023-07-20T01:47:04;7.57;;;2.90;;
19221;SDS011;9745;50.828;4.378;2023-07-20T01:49:30;12.43;;;3.60;;
19221;SDS011;9745;50.828;4.378;2023-07-20T01:51:57;5.67;;;3.50;;
19221;SDS011;9745;50.828;4.378;2023-07-20T01:54:23;8.97;;;3.70;;
19221;SDS011;9745;50.828;4.378;2023-07-20T01:56:49;9.37;;;3.40;;
19221;SDS011;9745;50.828;4.378;2023-07-20T01:59:15;8.70;;;3.90;;
19221;SDS011;9745;50.828;4.378;2023-07-20T02:01:41;9.83;;;4.00;;
19221;SDS011;9745;50.828;4.378;2023-07-20T02:04:07;9.67;;;3.60;;
19221;SDS011;9745;50.828;4.378;2023-07-20T02:06:33;10.33;;;4.17;;
19221;SDS011;9745;50.828;4.378;2023-07-20T02:08:59;8.07;;;4.43;;
19221;SDS011;9745;50.828;4.378;2023-07-20T02:11:25;9.93;;;4.20;;
19221;SDS011;9745;50.828;4.378;2023-07-20T02:13:51;10.20;;;4.30;;
19221;SDS011;9745;50.828;4.378;2023-07-20T02:16:17;11.57;;;4.43;;
19221;SDS011;9745;50.828;4.378;2023-07-20T02:18:43;9.63;;;4.90;;
19221;SDS011;9745;50.828;4.378;2023-07-20T02:21:09;9.93;;;4.13;;
19221;SDS011;9745;50.828;4.378;2023-07-20T02:23:37;7.80;;;4.13;;
19221;SDS011;9745;50.828;4.378;2023-07-20T02:26:03;10.43;;;4.50;;
19221;SDS011;9745;50.828;4.378;2023-07-20T02:28:29;13.40;;;4.43;;
19221;SDS011;9745;50.828;4.378;2023-07-20T02:30:55;11.40;;;4.73;;
19221;SDS011;9745;50.828;4.378;2023-07-20T02:33:20;12.60;;;4.57;;
19221;SDS011;9745;50.828;4.378;2023-07-20T02:35:47;12.67;;;4.87;;
19221;SDS011;9745;50.828;4.378;2023-07-20T02:38:16;10.00;;;4.37;;
19221;SDS011;9745;50.828;4.378;2023-07-20T02:40:41;12.97;;;5.70;;
19221;SDS011;9745;50.828;4.378;2023-07-20T02:43:07;11.33;;;5.53;;
19221;SDS011;9745;50.828;4.378;2023-07-20T02:45:34;13.30;;;5.20;;
19221;SDS011;9745;50.828;4.378;2023-07-20T02:48:02;13.70;;;5.20;;
19221;SDS011;9745;50.828;4.378;2023-07-20T02:50:28;11.47;;;5.10;;
19221;SDS011;9745;50.828;4.378;2023-07-20T02:52:54;10.90;;;5.37;;
19221;SDS011;9745;50.828;4.378;2023-07-20T02:55:20;12.80;;;5.67;;
19221;SDS011;9745;50.828;4.378;2023-07-20T02:57:46;12.03;;;6.40;;
19221;SDS011;9745;50.828;4.378;2023-07-20T03:00:12;12.23;;;6.33;;
19221;SDS011;9745;50.828;4.378;2023-07-20T03:02:40;14.37;;;6.33;;
19221;SDS011;9745;50.828;4.378;2023-07-20T03:05:06;12.27;;;6.53;;
19221;SDS011;9745;50.828;4.378;2023-07-20T03:07:32;10.47;;;5.93;;
19221;SDS011;9745;50.828;4.378;2023-07-20T03:09:58;14.23;;;6.30;;
19221;SDS011;9745;50.828;4.378;2023-07-20T03:12:24;14.27;;;6.97;;
19221;SDS011;9745;50.828;4.378;2023-07-20T03:14:50;10.47;;;5.67;;
19221;SDS011;9745;50.828;4.378;2023-07-20T03:17:16;12.47;;;6.43;;
19221;SDS011;9745;50.828;4.378;2023-07-20T03:19:42;14.77;;;7.20;;
19221;SDS011;9745;50.828;4.378;2023-07-20T03:22:10;10.93;;;5.57;;
19221;SDS011;9745;50.828;4.378;2023-07-20T03:24:36;12.97;;;6.23;;
19221;SDS011;9745;50.828;4.378;2023-07-20T03:27:02;14.70;;;6.70;;
19221;SDS011;9745;50.828;4.378;2023-07-20T03:29:31;11.00;;;6.60;;
19221;SDS011;9745;50.828;4.378;2023-07-20T03:31:57;17.90;;;6.80;;
19221;SDS011;9745;50.828;4.378;2023-07-20T03:34:24;15.10;;;6.00;;
19221;SDS011;9745;50.828;4.378;2023-07-20T03:36:50;12.10;;;6.50;;
19221;SDS011;9745;50.828;4.378;2023-07-20T03:39:16;13.73;;;7.27;;
19221;SDS011;9745;50.828;4.378;2023-07-20T03:41:42;14.37;;;6.53;;
19221;SDS011;9745;50.828;4.378;2023-07-20T03:44:08;13.80;;;6.70;;
19221;SDS011;9745;50.828;4.378;2023-07-20T03:46:34;13.27;;;7.03;;
19221;SDS011;9745;50.828;4.378;2023-07-20T03:49:00;16.03;;;7.87;;
19221;SDS011;9745;50.828;4.378;2023-07-20T03:51:26;12.13;;;7.10;;
19221;SDS011;9745;50.828;4.378;2023-07-20T03:53:52;10.53;;;6.97;;
19221;SDS011;9745;50.828;4.378;2023-07-20T03:56:18;16.37;;;8.20;;
19221;SDS011;9745;50.828;4.378;2023-07-20T03:58:44;12.07;;;7.13;;
19221;SDS011;9745;50.828;4.378;2023-07-20T04:01:10;16.33;;;8.73;;
19221;SDS011;9745;50.828;4.378;2023-07-20T04:03:38;12.47;;;8.13;;
19221;SDS011;9745;50.828;4.378;2023-07-20T04:06:04;13.53;;;7.13;;
19221;SDS011;9745;50.828;4.378;2023-07-20T04:08:30;18.93;;;8.20;;
19221;SDS011;9745;50.828;4.378;2023-07-20T04:10:56;16.07;;;7.50;;
19221;SDS011;9745;50.828;4.378;2023-07-20T04:13:24;16.07;;;7.97;;
19221;SDS011;9745;50.828;4.378;2023-07-20T04:15:50;15.30;;;8.13;;
19221;SDS011;9745;50.828;4.378;2023-07-20T04:18:16;15.20;;;8.83;;
19221;SDS011;9745;50.828;4.378;2023-07-20T04:20:42;15.37;;;8.50;;
19221;SDS011;9745;50.828;4.378;2023-07-20T04:23:08;20.37;;;8.93;;
19221;SDS011;9745;50.828;4.378;2023-07-20T04:25:34;13.93;;;8.03;;
19221;SDS011;9745;50.828;4.378;2023-07-20T04:28:04;14.40;;;8.50;;
19221;SDS011;9745;50.828;4.378;2023-07-20T04:30:33;17.73;;;8.10;;
19221;SDS011;9745;50.828;4.378;2023-07-20T04:32:59;15.13;;;8.37;;
19221;SDS011;9745;50.828;4.378;2023-07-20T04:38:09;12.93;;;8.90;;
19221;SDS011;9745;50.828;4.378;2023-07-20T04:40:35;17.83;;;7.87;;
19221;SDS011;9745;50.828;4.378;2023-07-20T04:43:01;14.00;;;8.10;;
19221;SDS011;9745;50.828;4.378;2023-07-20T04:45:28;15.30;;;8.00;;
19221;SDS011;9745;50.828;4.378;2023-07-20T04:47:54;18.07;;;8.37;;
19221;SDS011;9745;50.828;4.378;2023-07-20T04:50:21;14.40;;;7.77;;
19221;SDS011;9745;50.828;4.378;2023-07-20T04:52:46;12.83;;;8.13;;
19221;SDS011;9745;50.828;4.378;2023-07-20T04:55:13;10.20;;;6.80;;
19221;SDS011;9745;50.828;4.378;2023-07-20T04:57:39;15.87;;;8.13;;
19221;SDS011;9745;50.828;4.378;2023-07-20T05:00:05;14.43;;;8.10;;
19221;SDS011;9745;50.828;4.378;2023-07-20T05:02:31;13.47;;;7.93;;
19221;SDS011;9745;50.828;4.378;2023-07-20T05:04:57;16.73;;;8.10;;
19221;SDS011;9745;50.828;4.378;2023-07-20T05:07:23;15.30;;;8.07;;
19221;SDS011;9745;50.828;4.378;2023-07-20T05:09:49;17.13;;;8.33;;
19221;SDS011;9745;50.828;4.378;2023-07-20T05:12:15;12.87;;;7.57;;
19221;SDS011;9745;50.828;4.378;2023-07-20T05:14:41;14.60;;;7.80;;
19221;SDS011;9745;50.828;4.378;2023-07-20T05:17:07;14.83;;;7.83;;
19221;SDS011;9745;50.828;4.378;2023-07-20T05:19:33;13.70;;;7.57;;
19221;SDS011;9745;50.828;4.378;2023-07-20T05:21:59;12.00;;;7.37;;
19221;SDS011;9745;50.828;4.378;2023-07-20T05:24:25;13.20;;;7.77;;
19221;SDS011;9745;50.828;4.378;2023-07-20T05:26:51;14.80;;;7.93;;
19221;SDS011;9745;50.828;4.378;2023-07-20T05:29:17;11.23;;;7.20;;
19221;SDS011;9745;50.828;4.378;2023-07-20T05:31:43;15.43;;;8.33;;
19221;SDS011;9745;50.828;4.378;2023-07-20T05:34:09;13.33;;;7.10;;
19221;SDS011;9745;50.828;4.378;2023-07-20T05:36:35;15.60;;;7.97;;
19221;SDS011;9745;50.828;4.378;2023-07-20T05:39:02;15.33;;;8.30;;
19221;SDS011;9745;50.828;4.378;2023-07-20T05:41:28;11.87;;;7.30;;
19221;SDS011;9745;50.828;4.378;2023-07-20T05:43:54;16.93;;;7.53;;
19221;SDS011;9745;50.828;4.378;2023-07-20T05:46:20;12.67;;;6.63;;
19221;SDS011;9745;50.828;4.378;2023-07-20T05:48:46;11.33;;;7.13;;
19221;SDS011;9745;50.828;4.378;2023-07-20T05:51:12;14.50;;;7.60;;
19221;SDS011;9745;50.828;4.378;2023-07-20T05:53:38;12.23;;;7.73;;
19221;SDS011;9745;50.828;4.378;2023-07-20T05:56:04;10.83;;;6.70;;
19221;SDS011;9745;50.828;4.378;2023-07-20T05:58:30;14.77;;;7.70;;
19221;SDS011;9745;50.828;4.378;2023-07-20T06:00:56;15.90;;;7.93;;
19221;SDS011;9745;50.828;4.378;2023-07-20T06:03:23;11.87;;;7.60;;
19221;SDS011;9745;50.828;4.378;2023-07-20T06:05:49;17.10;;;7.30;;
19221;SDS011;9745;50.828;4.378;2023-07-20T06:08:15;10.57;;;7.13;;
19221;SDS011;9745;50.828;4.378;2023-07-20T06:10:41;13.30;;;7.37;;
19221;SDS011;9745;50.828;4.378;2023-07-20T06:13:07;10.90;;;7.20;;
19221;SDS011;9745;50.828;4.378;2023-07-20T06:15:35;9.40;;;6.87;;
19221;SDS011;9745;50.828;4.378;2023-07-20T06:18:01;11.43;;;7.30;;
19221;SDS011;9745;50.828;4.378;2023-07-20T06:20:28;12.03;;;6.00;;
19221;SDS011;9745;50.828;4.378;2023-07-20T06:22:55;9.20;;;6.10;;
19221;SDS011;9745;50.828;4.378;2023-07-20T06:25:21;10.30;;;5.87;;
19221;SDS011;9745;50.828;4.378;2023-07-20T06:27:48;8.17;;;4.50;;
19221;SDS011;9745;50.828;4.378;2023-07-20T06:30:15;6.07;;;3.90;;
19221;SDS011;9745;50.828;4.378;2023-07-20T06:32:41;10.10;;;5.47;;
19221;SDS011;9745;50.828;4.378;2023-07-20T06:35:07;6.53;;;5.33;;
19221;SDS011;9745;50.828;4.378;2023-07-20T06:37:34;11.60;;;5.67;;
19221;SDS011;9745;50.828;4.378;2023-07-20T06:40:00;8.50;;;5.90;;
19221;SDS011;9745;50.828;4.378;2023-07-20T06:42:26;10.97;;;5.77;;
19221;SDS011;9745;50.828;4.378;2023-07-20T06:44:52;6.10;;;4.90;;
19221;SDS011;9745;50.828;4.378;2023-07-20T06:47:18;7.90;;;3.73;;
19221;SDS011;9745;50.828;4.378;2023-07-20T06:49:44;7.33;;;3.97;;
19221;SDS011;9745;50.828;4.378;2023-07-20T06:52:12;6.73;;;4.00;;
19221;SDS011;9745;50.828;4.378;2023-07-20T06:54:38;10.50;;;5.17;;
19221;SDS011;9745;50.828;4.378;2023-07-20T06:57:04;9.57;;;5.17;;
19221;SDS011;9745;50.828;4.378;2023-07-20T06:59:30;9.93;;;5.93;;
19221;SDS011;9745;50.828;4.378;2023-07-20T07:01:56;7.63;;;4.40;;
19221;SDS011;9745;50.828;4.378;2023-07-20T07:04:22;9.03;;;4.87;;
19221;SDS011;9745;50.828;4.378;2023-07-20T07:06:50;5.70;;;4.03;;
19221;SDS011;9745;50.828;4.378;2023-07-20T07:09:16;7.57;;;4.20;;
19221;SDS011;9745;50.828;4.378;2023-07-20T07:11:43;5.83;;;4.27;;
19221;SDS011;9745;50.828;4.378;2023-07-20T07:14:09;6.23;;;3.90;;
19221;SDS011;9745;50.828;4.378;2023-07-20T07:16:35;5.33;;;2.43;;
19221;SDS011;9745;50.828;4.378;2023-07-20T07:19:01;4.30;;;1.87;;
19221;SDS011;9745;50.828;4.378;2023-07-20T07:21:28;2.57;;;1.80;;
19221;SDS011;9745;50.828;4.378;2023-07-20T07:23:54;1.53;;;1.27;;
19221;SDS011;9745;50.828;4.378;2023-07-20T07:26:22;2.20;;;1.73;;
19221;SDS011;9745;50.828;4.378;2023-07-20T07:28:49;4.70;;;1.10;;
19221;SDS011;9745;50.828;4.378;2023-07-20T07:31:15;1.73;;;0.80;;
19221;SDS011;9745;50.828;4.378;2023-07-20T07:33:41;2.00;;;0.90;;
19221;SDS011;9745;50.828;4.378;2023-07-20T07:36:07;1.40;;;0.70;;
19221;SDS011;9745;50.828;4.378;2023-07-20T07:38:33;0.77;;;0.50;;
19221;SDS011;9745;50.828;4.378;2023-07-20T07:40:59;0.90;;;0.57;;
19221;SDS011;9745;50.828;4.378;2023-07-20T07:43:25;1.63;;;0.80;;
19221;SDS011;9745;50.828;4.378;2023-07-20T07:45:53;1.77;;;0.87;;
19221;SDS011;9745;50.828;4.378;2023-07-20T07:48:19;1.40;;;0.70;;
19221;SDS011;9745;50.828;4.378;2023-07-20T07:50:46;2.07;;;0.70;;
19221;SDS011;9745;50.828;4.378;2023-07-20T07:53:12;1.07;;;0.53;;
19221;SDS011;9745;50.828;4.378;2023-07-20T07:55:38;3.30;;;0.70;;
19221;SDS011;9745;50.828;4.378;2023-07-20T07:58:04;0.57;;;0.30;;
19221;SDS011;9745;50.828;4.378;2023-07-20T08:00:30;1.00;;;0.50;;
19221;SDS011;9745;50.828;4.378;2023-07-20T08:02:56;2.20;;;1.20;;
19221;SDS011;9745;50.828;4.378;2023-07-20T08:05:22;5.40;;;1.87;;
19221;SDS011;9745;50.828;4.378;2023-07-20T08:07:48;4.37;;;1.50;;
19221;SDS011;9745;50.828;4.378;2023-07-20T08:10:14;3.97;;;1.63;;
19221;SDS011;9745;50.828;4.378;2023-07-20T08:12:40;5.60;;;1.80;;
19221;SDS011;9745;50.828;4.378;2023-07-20T08:15:07;3.17;;;0.90;;
19221;SDS011;9745;50.828;4.378;2023-07-20T08:17:33;2.63;;;1.07;;
19221;SDS011;9745;50.828;4.378;2023-07-20T08:19:59;1.87;;;1.30;;
19221;SDS011;9745;50.828;4.378;2023-07-20T08:22:25;1.97;;;1.00;;
19221;SDS011;9745;50.828;4.378;2023-07-20T08:24:51;1.77;;;1.17;;
19221;SDS011;9745;50.828;4.378;2023-07-20T08:27:17;2.33;;;1.10;;
19221;SDS011;9745;50.828;4.378;2023-07-20T08:29:43;2.30;;;1.03;;
19221;SDS011;9745;50.828;4.378;2023-07-20T08:32:09;1.33;;;0.90;;
19221;SDS011;9745;50.828;4.378;2023-07-20T08:34:35;0.87;;;0.80;;
19221;SDS011;9745;50.828;4.378;2023-07-20T08:37:01;2.10;;;1.10;;
19221;SDS011;9745;50.828;4.378;2023-07-20T08:39:27;2.10;;;1.20;;
19221;SDS011;9745;50.828;4.378;2023-07-20T08:41:53;3.42;;;1.40;;
19221;SDS011;9745;50.828;4.378;2023-07-20T08:44:20;2.20;;;1.20;;
19221;SDS011;9745;50.828;4.378;2023-07-20T08:46:48;3.38;;;1.42;;
19221;SDS011;9745;50.828;4.378;2023-07-20T08:49:15;1.90;;;1.20;;
19221;SDS011;9745;50.828;4.378;2023-07-20T08:51:42;2.33;;;1.27;;
19221;SDS011;9745;50.828;4.378;2023-07-20T08:54:08;3.00;;;1.40;;
19221;SDS011;9745;50.828;4.378;2023-07-20T08:56:35;2.70;;;1.50;;
19221;SDS011;9745;50.828;4.378;2023-07-20T08:59:02;4.63;;;1.15;;
19221;SDS011;9745;50.828;4.378;2023-07-20T09:01:28;2.95;;;1.23;;
19221;SDS011;9745;50.828;4.378;2023-07-20T09:03:55;2.95;;;1.10;;
19221;SDS011;9745;50.828;4.378;2023-07-20T09:06:21;4.57;;;1.30;;
19221;SDS011;9745;50.828;4.378;2023-07-20T09:08:47;1.80;;;1.10;;
19221;SDS011;9745;50.828;4.378;2023-07-20T09:11:15;3.00;;;1.00;;
19221;SDS011;9745;50.828;4.378;2023-07-20T09:13:42;2.70;;;1.20;;
19221;SDS011;9745;50.828;4.378;2023-07-20T09:16:08;2.83;;;1.20;;
19221;SDS011;9745;50.828;4.378;2023-07-20T09:18:34;2.25;;;1.15;;
19221;SDS011;9745;50.828;4.378;2023-07-20T09:21:02;1.58;;;1.10;;
19221;SDS011;9745;50.828;4.378;2023-07-20T09:23:35;2.17;;;1.25;;
19221;SDS011;9745;50.828;4.378;2023-07-20T09:26:09;1.52;;;0.80;;
19221;SDS011;9745;50.828;4.378;2023-07-20T09:29:09;2.00;;;0.88;;
19221;SDS011;9745;50.828;4.378;2023-07-20T09:31:28;3.35;;;0.90;;
19221;SDS011;9745;50.828;4.378;2023-07-20T09:33:54;2.95;;;1.08;;
19221;SDS011;9745;50.828;4.378;2023-07-20T09:36:20;4.07;;;1.10;;
19221;SDS011;9745;50.828;4.378;2023-07-20T09:38:46;1.98;;;0.80;;
19221;SDS011;9745;50.828;4.378;2023-07-20T09:41:15;2.90;;;0.80;;
19221;SDS011;9745;50.828;4.378;2023-07-20T09:43:43;2.85;;;0.80;;
19221;SDS011;9745;50.828;4.378;2023-07-20T09:46:11;2.15;;;0.90;;
19221;SDS011;9745;50.828;4.378;2023-07-20T09:48:37;1.25;;;1.05;;
19221;SDS011;9745;50.828;4.378;2023-07-20T09:51:03;2.85;;;0.90;;
19221;SDS011;9745;50.828;4.378;2023-07-20T09:53:32;2.33;;;1.45;;
19221;SDS011;9745;50.828;4.378;2023-07-20T09:55:59;2.65;;;0.98;;
19221;SDS011;9745;50.828;4.378;2023-07-20T09:58:26;1.15;;;0.73;;
19221;SDS011;9745;50.828;4.378;2023-07-20T10:00:52;3.67;;;0.90;;
19221;SDS011;9745;50.828;4.378;2023-07-20T10:03:22;1.63;;;0.85;;
19221;SDS011;9745;50.828;4.378;2023-07-20T10:05:52;3.85;;;1.00;;
19221;SDS011;9745;50.828;4.378;2023-07-20T10:08:21;3.72;;;1.38;;
19221;SDS011;9745;50.828;4.378;2023-07-20T10:10:49;3.78;;;1.08;;
19221;SDS011;9745;50.828;4.378;2023-07-20T10:13:17;3.58;;;1.27;;
19221;SDS011;9745;50.828;4.378;2023-07-20T10:15:46;4.70;;;0.85;;
19221;SDS011;9745;50.828;4.378;2023-07-20T10:18:14;2.22;;;0.95;;
19221;SDS011;9745;50.828;4.378;2023-07-20T10:20:42;0.98;;;0.68;;
19221;SDS011;9745;50.828;4.378;2023-07-20T10:23:10;2.43;;;0.90;;
19221;SDS011;9745;50.828;4.378;2023-07-20T10:25:38;1.83;;;1.03;;
19221;SDS011;9745;50.828;4.378;2023-07-20T10:28:06;4.40;;;2.20;;
19221;SDS011;9745;50.828;4.378;2023-07-20T10:30:35;1.97;;;1.20;;
19221;SDS011;9745;50.828;4.378;2023-07-20T10:33:02;3.00;;;1.17;;
19221;SDS011;9745;50.828;4.378;2023-07-20T10:35:28;6.03;;;3.77;;
19221;SDS011;9745;50.828;4.378;2023-07-20T10:37:59;2.43;;;1.53;;
19221;SDS011;9745;50.828;4.378;2023-07-20T10:40:26;10.47;;;5.37;;
19221;SDS011;9745;50.828;4.378;2023-07-20T10:42:59;10.07;;;3.73;;
19221;SDS011;9745;50.828;4.378;2023-07-20T10:45:35;10.47;;;5.90;;
19221;SDS011;9745;50.828;4.378;2023-07-20T10:48:14;2.33;;;1.27;;
19221;SDS011;9745;50.828;4.378;2023-07-20T10:50:44;1.53;;;1.17;;
19221;SDS011;9745;50.828;4.378;2023-07-20T10:53:11;2.97;;;1.27;;
19221;SDS011;9745;50.828;4.378;2023-07-20T10:55:38;4.50;;;1.43;;
19221;SDS011;9745;50.828;4.378;2023-07-20T10:58:11;3.13;;;1.30;;
19221;SDS011;9745;50.828;4.378;2023-07-20T11:00:37;2.67;;;1.60;;
19221;SDS011;9745;50.828;4.378;2023-07-20T11:03:03;2.63;;;0.87;;
19221;SDS011;9745;50.828;4.378;2023-07-20T11:05:37;1.93;;;1.20;;
19221;SDS011;9745;50.828;4.378;2023-07-20T11:08:03;1.63;;;1.07;;
19221;SDS011;9745;50.828;4.378;2023-07-20T11:10:30;3.20;;;1.10;;
19221;SDS011;9745;50.828;4.378;2023-07-20T11:15:47;2.60;;;1.43;;
19221;SDS011;9745;50.828;4.378;2023-07-20T11:18:13;1.77;;;1.20;;
19221;SDS011;9745;50.828;4.378;2023-07-20T11:20:40;1.70;;;1.00;;
19221;SDS011;9745;50.828;4.378;2023-07-20T11:23:06;2.93;;;1.20;;
19221;SDS011;9745;50.828;4.378;2023-07-20T11:25:36;1.50;;;1.20;;
19221;SDS011;9745;50.828;4.378;2023-07-20T11:28:06;1.93;;;1.50;;
19221;SDS011;9745;50.828;4.378;2023-07-20T11:30:32;1.90;;;1.40;;
19221;SDS011;9745;50.828;4.378;2023-07-20T11:32:59;1.67;;;1.30;;
19221;SDS011;9745;50.828;4.378;2023-07-20T11:35:25;2.00;;;1.53;;
19221;SDS011;9745;50.828;4.378;2023-07-20T11:37:51;2.30;;;1.30;;
19221;SDS011;9745;50.828;4.378;2023-07-20T11:40:17;2.03;;;1.63;;
19221;SDS011;9745;50.828;4.378;2023-07-20T11:42:43;2.37;;;1.50;;
19221;SDS011;9745;50.828;4.378;2023-07-20T11:45:10;2.77;;;1.80;;
19221;SDS011;9745;50.828;4.378;2023-07-20T11:47:39;2.67;;;2.30;;
19221;SDS011;9745;50.828;4.378;2023-07-20T11:50:07;2.83;;;2.20;;
19221;SDS011;9745;50.828;4.378;2023-07-20T11:52:33;3.57;;;2.10;;
19221;SDS011;9745;50.828;4.378;2023-07-20T11:54:59;3.73;;;1.50;;
19221;SDS011;9745;50.828;4.378;2023-07-20T11:57:25;2.37;;;1.70;;
19221;SDS011;9745;50.828;4.378;2023-07-20T11:59:54;3.30;;;1.80;;
19221;SDS011;9745;50.828;4.378;2023-07-20T12:02:24;2.07;;;1.83;;
19221;SDS011;9745;50.828;4.378;2023-07-20T12:04:51;3.70;;;2.07;;
19221;SDS011;9745;50.828;4.378;2023-07-20T12:07:18;2.27;;;2.00;;
19221;SDS011;9745;50.828;4.378;2023-07-20T12:09:44;5.00;;;1.90;;
19221;SDS011;9745;50.828;4.378;2023-07-20T12:12:10;4.37;;;1.80;;
19221;SDS011;9745;50.828;4.378;2023-07-20T12:14:37;2.73;;;1.70;;
19221;SDS011;9745;50.828;4.378;2023-07-20T12:17:03;2.30;;;2.10;;
19221;SDS011;9745;50.828;4.378;2023-07-20T12:19:29;2.80;;;2.30;;
19221;SDS011;9745;50.828;4.378;2023-07-20T12:21:57;2.63;;;1.70;;
19221;SDS011;9745;50.828;4.378;2023-07-20T12:24:26;5.47;;;2.30;;
19221;SDS011;9745;50.828;4.378;2023-07-20T12:26:55;2.57;;;2.07;;
19221;SDS011;9745;50.828;4.378;2023-07-20T12:29:25;2.90;;;1.60;;
19221;SDS011;9745;50.828;4.378;2023-07-20T12:31:51;3.30;;;1.97;;
19221;SDS011;9745;50.828;4.378;2023-07-20T12:34:17;2.93;;;1.77;;
19221;SDS011;9745;50.828;4.378;2023-07-20T12:36:43;3.40;;;2.20;;
19221;SDS011;9745;50.828;4.378;2023-07-20T12:39:09;3.03;;;2.07;;
19221;SDS011;9745;50.828;4.378;2023-07-20T12:41:35;1.90;;;1.53;;
19221;SDS011;9745;50.828;4.378;2023-07-20T12:44:01;3.03;;;1.90;;
19221;SDS011;9745;50.828;4.378;2023-07-20T12:46:27;4.47;;;2.17;;
19221;SDS011;9745;50.828;4.378;2023-07-20T12:48:54;3.47;;;2.03;;
19221;SDS011;9745;50.828;4.378;2023-07-20T12:51:20;2.77;;;1.83;;
19221;SDS011;9745;50.828;4.378;2023-07-20T12:53:46;2.13;;;1.73;;
19221;SDS011;9745;50.828;4.378;2023-07-20T12:56:12;4.67;;;2.00;;
19221;SDS011;9745;50.828;4.378;2023-07-20T12:58:38;3.30;;;1.97;;
19221;SDS011;9745;50.828;4.378;2023-07-20T13:01:04;3.43;;;2.30;;
19221;SDS011;9745;50.828;4.378;2023-07-20T13:03:30;4.80;;;1.80;;
19221;SDS011;9745;50.828;4.378;2023-07-20T13:05:56;2.23;;;1.87;;
19221;SDS011;9745;50.828;4.378;2023-07-20T13:08:23;3.53;;;2.10;;
19221;SDS011;9745;50.828;4.378;2023-07-20T13:10:50;5.17;;;2.20;;
19221;SDS011;9745;50.828;4.378;2023-07-20T13:13:16;7.10;;;3.40;;
19221;SDS011;9745;50.828;4.378;2023-07-20T13:15:43;7.87;;;3.47;;
19221;SDS011;9745;50.828;4.378;2023-07-20T13:18:09;7.60;;;5.27;;
19221;SDS011;9745;50.828;4.378;2023-07-20T13:20:35;10.97;;;4.77;;
19221;SDS011;9745;50.828;4.378;2023-07-20T13:23:01;5.67;;;3.80;;
19221;SDS011;9745;50.828;4.378;2023-07-20T13:25:27;5.77;;;4.37;;
19221;SDS011;9745;50.828;4.378;2023-07-20T13:27:53;7.33;;;4.13;;
19221;SDS011;9745;50.828;4.378;2023-07-20T13:30:19;4.07;;;3.67;;
19221;SDS011;9745;50.828;4.378;2023-07-20T13:32:46;3.47;;;2.77;;
19221;SDS011;9745;50.828;4.378;2023-07-20T13:35:12;4.90;;;2.60;;
19221;SDS011;9745;50.828;4.378;2023-07-20T13:37:39;3.60;;;2.70;;
19221;SDS011;9745;50.828;4.378;2023-07-20T13:40:05;6.07;;;3.37;;
19221;SDS011;9745;50.828;4.378;2023-07-20T13:42:32;3.80;;;2.40;;
19221;SDS011;9745;50.828;4.378;2023-07-20T13:44:58;8.13;;;2.80;;
19221;SDS011;9745;50.828;4.378;2023-07-20T13:47:24;3.77;;;2.60;;
19221;SDS011;9745;50.828;4.378;2023-07-20T13:49:50;7.40;;;2.77;;
19221;SDS011;9745;50.828;4.378;2023-07-20T13:52:16;6.17;;;2.40;;
19221;SDS011;9745;50.828;4.378;2023-07-20T13:54:42;4.20;;;2.20;;
19221;SDS011;9745;50.828;4.378;2023-07-20T13:57:08;2.50;;;1.90;;
19221;SDS011;9745;50.828;4.378;2023-07-20T13:59:36;4.10;;;2.03;;
19221;SDS011;9745;50.828;4.378;2023-07-20T14:02:05;2.47;;;1.80;;
19221;SDS011;9745;50.828;4.378;2023-07-20T14:04:31;5.43;;;2.47;;
19221;SDS011;9745;50.828;4.378;2023-07-20T14:06:57;6.43;;;2.20;;
19221;SDS011;9745;50.828;4.378;2023-07-20T14:09:23;3.07;;;2.20;;
19221;SDS011;9745;50.828;4.378;2023-07-20T14:11:49;7.13;;;2.00;;
19221;SDS011;9745;50.828;4.378;2023-07-20T14:14:15;3.57;;;1.83;;
19221;SDS011;9745;50.828;4.378;2023-07-20T14:16:41;6.30;;;1.80;;
19221;SDS011;9745;50.828;4.378;2023-07-20T14:19:07;2.87;;;1.67;;
19221;SDS011;9745;50.828;4.378;2023-07-20T14:21:33;4.03;;;1.87;;
19221;SDS011;9745;50.828;4.378;2023-07-20T14:23:59;3.40;;;2.30;;
19221;SDS011;9745;50.828;4.378;2023-07-20T14:26:25;4.80;;;2.10;;
19221;SDS011;9745;50.828;4.378;2023-07-20T14:28:51;2.27;;;1.53;;
19221;SDS011;9745;50.828;4.378;2023-07-20T14:31:17;3.60;;;2.10;;
19221;SDS011;9745;50.828;4.378;2023-07-20T14:33:44;3.73;;;1.80;;
19221;SDS011;9745;50.828;4.378;2023-07-20T14:36:10;4.47;;;2.00;;
19221;SDS011;9745;50.828;4.378;2023-07-20T14:38:36;4.17;;;2.30;;
19221;SDS011;9745;50.828;4.378;2023-07-20T14:41:02;6.13;;;1.97;;
19221;SDS011;9745;50.828;4.378;2023-07-20T14:43:30;6.57;;;1.80;;
19221;SDS011;9745;50.828;4.378;2023-07-20T14:45:56;4.03;;;1.73;;
19221;SDS011;9745;50.828;4.378;2023-07-20T14:48:22;4.80;;;2.20;;
19221;SDS011;9745;50.828;4.378;2023-07-20T14:50:50;3.60;;;1.97;;
19221;SDS011;9745;50.828;4.378;2023-07-20T14:53:16;2.17;;;1.87;;
19221;SDS011;9745;50.828;4.378;2023-07-20T14:55:42;5.73;;;1.80;;
19221;SDS011;9745;50.828;4.378;2023-07-20T14:58:09;3.37;;;2.00;;
19221;SDS011;9745;50.828;4.378;2023-07-20T15:00:35;2.00;;;1.60;;
19221;SDS011;9745;50.828;4.378;2023-07-20T15:03:01;3.13;;;1.80;;
19221;SDS011;9745;50.828;4.378;2023-07-20T15:05:27;2.70;;;1.70;;
19221;SDS011;9745;50.828;4.378;2023-07-20T15:07:53;2.53;;;1.87;;
19221;SDS011;9745;50.828;4.378;2023-07-20T15:10:20;3.77;;;1.70;;
19221;SDS011;9745;50.828;4.378;2023-07-20T15:12:47;2.43;;;1.77;;